Time;durP1;ratioP1;P1;durP2;ratioP2;P2;SDS_P1;SDS_P2;PMS_P1;PMS_P2;Temp;Humidity;BMP_temperature;BMP_pressure;BME280_temperature;BME280_humidity;BME280_pressure;Samples;Min_cycle;Max_cycle;Signal;HPM_P1;HPM_P2
2021/12/15 00:02:18;;;;;;;57.10;27.30;;;11.40;85.90;;;;;;5045617;28;20456;-86
2021/12/15 00:04:45;;;;;;;51.88;24.50;;;11.60;85.30;;;;;;5037322;28;20198;-88
2021/12/15 00:07:11;;;;;;;57.38;25.38;;;11.60;84.70;;;;;;5024852;28;20183;-87
2021/12/15 00:09:37;;;;;;;56.67;26.20;;;11.60;84.40;;;;;;5025026;28;20186;-87
2021/12/15 00:12:04;;;;;;;56.50;26.13;;;11.70;84.20;;;;;;5022011;28;20491;-88
2021/12/15 00:14:32;;;;;;;43.50;23.27;;;11.60;83.90;;;;;;5033201;28;20456;-88
2021/12/15 00:16:59;;;;;;;56.55;25.52;;;11.50;84.10;;;;;;5036324;28;20186;-88
2021/12/15 00:19:26;;;;;;;51.78;26.23;;;11.50;84.50;;;;;;5036438;28;20668;-88
2021/12/15 00:21:53;;;;;;;56.72;25.00;;;11.60;84.60;;;;;;5037155;28;20264;-87
2021/12/15 00:24:19;;;;;;;56.28;26.75;;;11.40;84.50;;;;;;5037450;28;20194;-87
2021/12/15 00:26:45;;;;;;;48.23;24.03;;;11.30;85.50;;;;;;5038342;28;20220;-88
2021/12/15 00:29:10;;;;;;;55.40;24.90;;;11.40;85.10;;;;;;5048945;28;20210;-87
2021/12/15 00:31:37;;;;;;;62.57;26.43;;;11.50;84.90;;;;;;5033741;28;20221;-88
2021/12/15 00:34:07;;;;;;;54.65;25.30;;;11.50;84.80;;;;;;5027437;28;20437;-88
2021/12/15 00:36:33;;;;;;;45.35;23.33;;;11.40;84.70;;;;;;5026385;28;20229;-87
2021/12/15 00:39:00;;;;;;;50.35;24.10;;;11.40;84.90;;;;;;5044854;28;20178;-87
2021/12/15 00:41:26;;;;;;;50.75;24.88;;;11.40;85.00;;;;;;5043612;28;20213;-87
2021/12/15 00:43:51;;;;;;;55.60;25.40;;;11.40;85.00;;;;;;5045793;28;20578;-87
2021/12/15 00:46:17;;;;;;;46.00;23.73;;;11.30;85.10;;;;;;5051266;28;20927;-87
2021/12/15 00:48:43;;;;;;;43.80;24.42;;;11.30;85.20;;;;;;5027895;28;20296;-87
2021/12/15 00:51:10;;;;;;;51.27;24.30;;;11.40;85.30;;;;;;5017987;28;20654;-87
2021/12/15 00:53:36;;;;;;;59.00;23.88;;;11.50;85.00;;;;;;5019966;28;20175;-88
2021/12/15 00:56:03;;;;;;;53.97;25.38;;;11.50;84.70;;;;;;5017725;28;20305;-88
2021/12/15 00:58:28;;;;;;;46.60;22.95;;;11.30;84.80;;;;;;5021194;28;20567;-87
2021/12/15 01:00:59;;;;;;;42.40;22.57;;;11.30;85.20;;;;;;5031876;28;20187;-87
2021/12/15 01:03:25;;;;;;;55.10;23.77;;;11.30;85.40;;;;;;5034485;28;20175;-89
2021/12/15 01:05:58;;;;;;;51.13;24.85;;;11.30;85.40;;;;;;5034022;28;20216;-87
2021/12/15 01:08:28;;;;;;;46.40;23.00;;;11.40;85.20;;;;;;5041561;28;20186;-88
2021/12/15 01:11:13;;;;;;;47.88;24.70;;;11.30;85.10;;;;;;5055827;28;20189;-88
2021/12/15 01:22:00;;;;;;;42.60;21.23;;;11.50;85.30;;;;;;5022082;28;20327;-88
2021/12/15 01:24:26;;;;;;;44.15;22.08;;;11.60;85.20;;;;;;5003769;28;20788;-87
2021/12/15 01:26:52;;;;;;;48.37;23.87;;;11.50;85.20;;;;;;5022345;28;20187;-88
2021/12/15 01:29:18;;;;;;;46.92;23.58;;;11.50;85.20;;;;;;5018348;28;20497;-88
2021/12/15 01:31:44;;;;;;;52.92;23.65;;;11.40;85.10;;;;;;5016404;28;20276;-87
2021/12/15 01:34:10;;;;;;;50.40;23.83;;;11.50;85.20;;;;;;5016641;28;20679;-87
2021/12/15 01:36:35;;;;;;;53.30;25.73;;;11.50;85.10;;;;;;5016022;28;20425;-87
2021/12/15 01:39:03;;;;;;;57.27;23.80;;;11.50;85.00;;;;;;5028016;28;20188;-88
2021/12/15 01:41:29;;;;;;;55.88;22.42;;;11.40;85.30;;;;;;5035947;28;20424;-88
2021/12/15 01:49:44;;;;;;;51.90;23.30;;;11.10;85.50;;;;;;5019025;28;20174;-87
2021/12/15 01:52:18;;;;;;;56.13;23.65;;;11.20;85.80;;;;;;5021366;28;20669;-87
2021/12/15 01:54:49;;;;;;;57.75;25.85;;;11.20;85.90;;;;;;5022802;28;20217;-87
2021/12/15 01:57:16;;;;;;;52.72;22.85;;;11.20;85.90;;;;;;5022097;28;20186;-87
2021/12/15 01:59:44;;;;;;;51.63;23.73;;;11.30;86.10;;;;;;5021180;28;20178;-88
2021/12/15 02:02:11;;;;;;;49.35;23.70;;;11.40;85.70;;;;;;5022068;28;20182;-87
2021/12/15 02:04:36;;;;;;;51.78;23.50;;;11.30;85.80;;;;;;5022046;28;20233;-87
2021/12/15 02:07:05;;;;;;;58.80;23.73;;;11.30;86.00;;;;;;5024694;28;20185;-88
2021/12/15 02:11:59;;;;;;;47.65;23.60;;;11.30;85.70;;;;;;5039785;28;20213;-87
2021/12/15 02:14:25;;;;;;;56.13;26.10;;;11.30;85.70;;;;;;5038803;28;20197;-87
2021/12/15 02:16:52;;;;;;;52.80;24.80;;;11.40;85.40;;;;;;5039459;28;20197;-87
2021/12/15 02:19:18;;;;;;;48.60;22.60;;;11.40;85.20;;;;;;5037688;28;20267;-88
2021/12/15 02:21:44;;;;;;;50.83;22.77;;;11.40;85.00;;;;;;5036441;28;20657;-88
2021/12/15 02:24:10;;;;;;;46.37;22.10;;;11.20;84.80;;;;;;5039549;28;20198;-88
2021/12/15 02:26:39;;;;;;;46.50;23.77;;;11.20;85.40;;;;;;5039187;28;20836;-87
2021/12/15 02:29:15;;;;;;;50.78;21.95;;;11.20;85.80;;;;;;5039254;28;20182;-87
2021/12/15 02:37:18;;;;;;;44.67;21.55;;;11.20;86.30;;;;;;5042775;28;20268;-87
2021/12/15 02:39:51;;;;;;;49.53;23.00;;;11.30;86.20;;;;;;5046762;28;20169;-87
2021/12/15 02:42:18;;;;;;;47.50;23.10;;;11.40;85.70;;;;;;5048189;28;20287;-88
2021/12/15 02:44:45;;;;;;;53.92;22.35;;;11.30;85.40;;;;;;5039400;28;20198;-88
2021/12/15 02:47:17;;;;;;;50.67;22.27;;;11.30;85.50;;;;;;5027033;28;20178;-88
2021/12/15 02:49:44;;;;;;;45.80;21.52;;;11.20;85.30;;;;;;5025543;28;20217;-88
2021/12/15 02:52:11;;;;;;;50.40;23.80;;;11.30;85.60;;;;;;5025388;28;20222;-87
2021/12/15 02:54:37;;;;;;;48.50;23.23;;;11.30;85.70;;;;;;5042971;28;20197;-87
2021/12/15 02:57:11;;;;;;;51.92;22.98;;;11.30;85.80;;;;;;5044703;28;20177;-87
2021/12/15 02:59:52;;;;;;;58.70;24.60;;;11.40;85.60;;;;;;5042598;28;20224;-87
2021/12/15 03:05:03;;;;;;;46.50;22.45;;;11.50;85.70;;;;;;5042275;28;20206;-87
2021/12/15 03:16:01;;;;;;;47.53;22.48;;;11.40;85.10;;;;;;5029356;28;20186;-87
2021/12/15 03:18:29;;;;;;;45.50;20.90;;;11.50;85.10;;;;;;5020220;28;20642;-88
2021/12/15 03:20:58;;;;;;;51.88;22.33;;;11.60;84.90;;;;;;5020481;28;20198;-87
2021/12/15 03:23:51;;;;;;;49.70;20.02;;;11.70;84.60;;;;;;5020632;28;20178;-87
2021/12/15 03:26:29;;;;;;;46.08;23.08;;;11.50;84.50;;;;;;5028947;28;20181;-88
2021/12/15 03:34:49;;;;;;;45.88;20.65;;;11.50;84.90;;;;;;5041119;28;20200;-88
2021/12/15 03:37:23;;;;;;;45.17;21.40;;;11.50;84.60;;;;;;5039794;28;20192;-87
2021/12/15 03:39:56;;;;;;;39.97;18.60;;;11.30;84.60;;;;;;5040678;28;20174;-87
2021/12/15 03:42:29;;;;;;;47.72;22.80;;;11.40;85.00;;;;;;5040325;28;20166;-88
2021/12/15 03:44:56;;;;;;;52.25;24.52;;;11.40;85.10;;;;;;5020802;28;20202;-87
2021/12/15 03:47:27;;;;;;;49.38;21.10;;;11.30;85.20;;;;;;5035710;28;20185;-87
2021/12/15 03:49:55;;;;;;;41.85;17.58;;;11.20;85.40;;;;;;5017705;28;20631;-88
2021/12/15 03:52:22;;;;;;;44.28;21.73;;;11.30;85.80;;;;;;5019102;28;20217;-87
2021/12/15 03:54:47;;;;;;;46.83;20.08;;;11.30;85.60;;;;;;5033670;28;20206;-87
2021/12/15 03:57:15;;;;;;;46.70;21.87;;;11.30;85.50;;;;;;5019655;28;20546;-88
2021/12/15 03:59:43;;;;;;;44.65;21.23;;;11.20;85.60;;;;;;5024889;28;20424;-87
2021/12/15 04:02:15;;;;;;;48.30;20.42;;;11.40;85.80;;;;;;5019295;28;20186;-87
2021/12/15 04:04:42;;;;;;;44.80;20.05;;;11.20;85.80;;;;;;5017856;28;20264;-88
2021/12/15 04:07:10;;;;;;;50.75;22.80;;;11.20;85.90;;;;;;5018143;28;20179;-87
2021/12/15 04:09:36;;;;;;;47.65;21.50;;;11.20;86.00;;;;;;5017305;28;20240;-88
2021/12/15 04:12:03;;;;;;;46.75;22.52;;;11.30;86.00;;;;;;5016859;28;20217;-87
2021/12/15 04:14:40;;;;;;;56.20;22.65;;;11.30;86.00;;;;;;5028809;28;20217;-88
2021/12/15 04:17:17;;;;;;;50.97;21.65;;;11.40;86.10;;;;;;5022601;28;20221;-89
2021/12/15 04:19:44;;;;;;;54.22;23.42;;;11.30;85.90;;;;;;5032093;28;20185;-88
2021/12/15 04:22:10;;;;;;;49.85;20.55;;;11.40;85.70;;;;;;5053476;28;20173;-88
2021/12/15 04:24:35;;;;;;;47.63;22.45;;;11.30;85.80;;;;;;5046806;28;20242;-88
2021/12/15 04:27:02;;;;;;;50.13;21.47;;;11.30;85.90;;;;;;5039035;28;20549;-88
2021/12/15 04:29:29;;;;;;;49.58;22.08;;;11.30;85.90;;;;;;5037093;28;20425;-88
2021/12/15 04:32:03;;;;;;;43.35;22.00;;;11.50;85.70;;;;;;5014833;28;20305;-88
2021/12/15 04:34:29;;;;;;;49.95;24.30;;;11.50;85.20;;;;;;5017837;28;20195;-88
2021/12/15 04:36:57;;;;;;;56.40;22.80;;;11.50;84.90;;;;;;5015950;28;20591;-88
2021/12/15 04:39:26;;;;;;;45.42;22.25;;;11.30;85.20;;;;;;5016383;28;20426;-88
2021/12/15 04:41:54;;;;;;;54.80;24.52;;;11.20;85.40;;;;;;5016186;28;20186;-88
2021/12/15 04:44:25;;;;;;;45.63;21.40;;;11.20;85.70;;;;;;5016871;28;20233;-88
2021/12/15 04:47:01;;;;;;;48.78;22.58;;;11.40;85.80;;;;;;5016279;28;20190;-88
2021/12/15 04:49:30;;;;;;;52.65;22.98;;;11.40;85.40;;;;;;5020316;28;20236;-88
2021/12/15 04:51:56;;;;;;;45.88;24.00;;;11.40;85.50;;;;;;5019008;28;20340;-88
2021/12/15 04:54:22;;;;;;;52.17;23.55;;;11.50;85.30;;;;;;5015571;28;20252;-88
2021/12/15 04:56:48;;;;;;;53.30;23.83;;;11.60;85.10;;;;;;5015754;28;20179;-88
2021/12/15 04:59:15;;;;;;;44.22;22.63;;;11.60;85.00;;;;;;5016211;28;20448;-88
2021/12/15 05:01:41;;;;;;;54.63;23.85;;;11.50;85.00;;;;;;5015970;28;20187;-88
2021/12/15 05:04:07;;;;;;;56.67;23.70;;;11.40;85.10;;;;;;5022089;28;20197;-88
2021/12/15 05:06:33;;;;;;;50.60;24.38;;;11.40;85.30;;;;;;5035539;28;20637;-88
2021/12/15 05:09:00;;;;;;;51.73;24.60;;;11.30;85.40;;;;;;5035864;28;20189;-88
2021/12/15 05:11:26;;;;;;;45.78;24.13;;;11.40;85.30;;;;;;5042827;28;21125;-88
2021/12/15 05:13:52;;;;;;;50.75;23.70;;;11.50;85.50;;;;;;5040160;28;20206;-88
2021/12/15 05:16:18;;;;;;;53.27;23.37;;;11.60;85.20;;;;;;5040991;28;20223;-87
2021/12/15 05:18:44;;;;;;;52.60;23.87;;;11.60;85.00;;;;;;5038248;28;20532;-87
2021/12/15 05:21:11;;;;;;;53.88;25.33;;;11.70;84.80;;;;;;5027976;28;20445;-89
2021/12/15 05:23:39;;;;;;;56.00;22.27;;;11.70;84.30;;;;;;5015864;28;20190;-89
2021/12/15 05:26:05;;;;;;;48.13;24.40;;;11.70;84.90;;;;;;5016559;28;20186;-88
2021/12/15 05:28:31;;;;;;;42.73;21.20;;;11.70;84.30;;;;;;5018567;28;20226;-88
2021/12/15 05:30:58;;;;;;;46.70;23.43;;;11.80;84.20;;;;;;5020126;28;20202;-88
2021/12/15 05:33:24;;;;;;;50.90;23.13;;;11.70;84.20;;;;;;5023149;28;20481;-88
2021/12/15 05:35:51;;;;;;;49.58;24.02;;;11.80;84.30;;;;;;5024524;28;20567;-88
2021/12/15 05:38:18;;;;;;;45.50;23.25;;;11.60;84.20;;;;;;5041528;28;20235;-88
2021/12/15 05:40:44;;;;;;;57.88;23.58;;;11.60;84.40;;;;;;5047172;28;20177;-87
2021/12/15 05:43:10;;;;;;;48.88;24.77;;;11.70;84.70;;;;;;5047213;28;20264;-87
2021/12/15 05:45:38;;;;;;;44.97;24.55;;;11.60;84.40;;;;;;5045349;28;20201;-88
2021/12/15 05:48:07;;;;;;;53.83;25.30;;;11.60;84.50;;;;;;5049185;28;20174;-88
2021/12/15 05:50:34;;;;;;;54.38;24.98;;;11.60;84.40;;;;;;5052942;28;20177;-88
2021/12/15 05:53:01;;;;;;;54.90;26.80;;;11.70;84.30;;;;;;5033146;28;20197;-88
2021/12/15 05:55:29;;;;;;;48.72;24.65;;;11.70;84.40;;;;;;5028763;28;20199;-87
2021/12/15 05:57:55;;;;;;;48.90;23.48;;;11.70;84.40;;;;;;5037831;28;20173;-88
2021/12/15 06:00:27;;;;;;;56.93;24.97;;;11.70;84.20;;;;;;5043314;28;20181;-87
2021/12/15 06:02:55;;;;;;;50.95;24.95;;;11.70;84.00;;;;;;5042781;28;20926;-88
2021/12/15 06:05:21;;;;;;;47.65;25.58;;;11.80;84.10;;;;;;5032802;28;20309;-88
2021/12/15 06:07:47;;;;;;;48.43;23.57;;;11.70;83.90;;;;;;5017261;28;20178;-87
2021/12/15 06:10:18;;;;;;;52.20;28.97;;;11.60;84.20;;;;;;5017571;28;20444;-87
2021/12/15 06:12:47;;;;;;;51.58;24.83;;;11.60;84.20;;;;;;5017323;28;20552;-87
2021/12/15 06:15:20;;;;;;;48.58;26.10;;;11.60;84.40;;;;;;5030857;28;20257;-87
2021/12/15 06:17:47;;;;;;;49.25;23.95;;;11.60;84.50;;;;;;5016409;28;20187;-87
2021/12/15 06:20:12;;;;;;;47.30;22.65;;;11.70;84.60;;;;;;5016797;28;20556;-87
2021/12/15 06:22:40;;;;;;;49.17;24.83;;;11.70;84.40;;;;;;5016981;28;20232;-87
2021/12/15 06:25:06;;;;;;;44.75;23.13;;;11.70;84.20;;;;;;5017603;28;20213;-87
2021/12/15 06:27:35;;;;;;;45.35;25.20;;;11.70;84.20;;;;;;5024081;28;20719;-86
2021/12/15 06:30:02;;;;;;;49.85;25.55;;;11.60;84.20;;;;;;5036452;28;20174;-87
2021/12/15 06:32:28;;;;;;;50.17;24.25;;;11.60;84.50;;;;;;5035458;28;20237;-87
2021/12/15 06:34:54;;;;;;;43.83;22.03;;;11.60;84.50;;;;;;5033836;28;20194;-87
2021/12/15 06:37:20;;;;;;;46.43;24.07;;;11.70;84.80;;;;;;5022176;28;20182;-87
2021/12/15 06:39:45;;;;;;;50.63;24.10;;;11.70;84.70;;;;;;5016418;28;20186;-86
2021/12/15 06:42:11;;;;;;;45.20;23.47;;;11.70;84.50;;;;;;5017104;28;20511;-86
2021/12/15 06:44:40;;;;;;;46.60;24.80;;;11.80;84.40;;;;;;5017945;28;20214;-87
2021/12/15 06:47:23;;;;;;;49.85;25.67;;;11.80;84.20;;;;;;5013434;28;20472;-87
2021/12/15 06:57:29;;;;;;;52.30;25.17;;;11.90;84.10;;;;;;5017871;28;20205;-86
2021/12/15 06:58:17;;;;;;;45.92;23.85;;;11.80;84.00;;;;;;5036048;28;20189;-87
2021/12/15 07:00:49;;;;;;;44.53;21.85;;;11.80;84.00;;;;;;5037168;28;20697;-86
2021/12/15 07:03:18;;;;;;;45.25;24.30;;;11.80;84.20;;;;;;5022001;28;20248;-87
2021/12/15 07:05:44;;;;;;;51.58;24.00;;;11.70;84.50;;;;;;5017180;28;20712;-87
2021/12/15 07:08:11;;;;;;;51.10;24.10;;;11.50;84.80;;;;;;5027392;28;20223;-87
2021/12/15 07:10:41;;;;;;;47.50;23.55;;;11.50;85.20;;;;;;5041295;28;20186;-93
2021/12/15 07:13:08;;;;;;;41.83;23.02;;;11.50;85.40;;;;;;5036237;28;20174;-93
2021/12/15 07:15:36;;;;;;;49.20;24.33;;;11.60;85.40;;;;;;5035426;28;20194;-92
2021/12/15 07:18:05;;;;;;;47.85;24.58;;;11.60;85.50;;;;;;5035430;28;20200;-93
2021/12/15 07:20:41;;;;;;;48.85;23.17;;;11.60;85.60;;;;;;5035341;28;20306;-93
2021/12/15 07:23:13;;;;;;;44.95;21.27;;;11.40;85.70;;;;;;5036326;28;20181;-93
2021/12/15 07:25:41;;;;;;;50.53;25.17;;;11.70;85.40;;;;;;5038694;28;20209;-93
2021/12/15 07:28:11;;;;;;;49.33;23.55;;;11.70;85.50;;;;;;5038662;28;20178;-93
2021/12/15 07:30:38;;;;;;;51.45;25.42;;;11.70;85.70;;;;;;5038333;28;20185;-92
2021/12/15 07:33:08;;;;;;;43.70;22.90;;;11.60;85.40;;;;;;5040417;28;20242;-92
2021/12/15 07:35:37;;;;;;;44.67;24.27;;;11.60;85.40;;;;;;5040641;28;20209;-93
2021/12/15 07:38:05;;;;;;;42.85;22.83;;;11.60;85.40;;;;;;5042257;28;20244;-92
2021/12/15 07:40:31;;;;;;;51.63;23.65;;;11.60;85.40;;;;;;5042852;28;20239;-93
2021/12/15 07:43:10;;;;;;;43.80;23.08;;;11.60;85.30;;;;;;5041105;28;20182;-92
2021/12/15 07:45:45;;;;;;;49.63;22.27;;;11.50;85.40;;;;;;5039939;28;20292;-82
2021/12/15 07:48:15;;;;;;;54.03;25.40;;;11.60;85.80;;;;;;5039224;28;20265;-83
2021/12/15 07:50:43;;;;;;;42.42;23.35;;;11.70;85.80;;;;;;5021726;28;20570;-83
2021/12/15 07:53:09;;;;;;;48.38;25.58;;;11.80;85.90;;;;;;5021247;28;20181;-83
2021/12/15 07:55:35;;;;;;;50.75;24.35;;;11.70;85.80;;;;;;5020661;28;20195;-83
2021/12/15 07:58:03;;;;;;;48.45;26.08;;;11.80;85.90;;;;;;5033590;28;20232;-82
2021/12/15 08:00:29;;;;;;;50.15;24.17;;;11.80;85.90;;;;;;5039571;28;20205;-83
2021/12/15 08:02:55;;;;;;;54.33;26.23;;;11.80;86.00;;;;;;5039715;28;20174;-83
2021/12/15 08:05:22;;;;;;;51.47;25.30;;;11.80;85.90;;;;;;5039194;28;20301;-82
2021/12/15 08:07:47;;;;;;;42.97;21.83;;;11.90;85.80;;;;;;5041043;28;20907;-82
2021/12/15 08:10:15;;;;;;;46.47;24.33;;;11.90;85.60;;;;;;5027303;28;20235;-83
2021/12/15 08:12:42;;;;;;;38.17;21.15;;;11.90;85.70;;;;;;5021781;28;20218;-85
2021/12/15 08:15:09;;;;;;;45.22;23.75;;;11.90;85.40;;;;;;5043461;28;20213;-84
2021/12/15 08:17:35;;;;;;;43.45;24.58;;;12.00;85.20;;;;;;5042778;28;20178;-84
2021/12/15 08:20:04;;;;;;;44.80;23.80;;;11.90;84.90;;;;;;5040473;28;20196;-84
2021/12/15 08:22:30;;;;;;;47.55;24.98;;;11.80;85.00;;;;;;5038721;28;20236;-85
2021/12/15 08:25:13;;;;;;;49.22;23.42;;;11.90;84.70;;;;;;5035929;28;20228;-84
2021/12/15 08:27:39;;;;;;;48.35;26.55;;;11.90;84.90;;;;;;5019335;28;20616;-83
2021/12/15 08:30:09;;;;;;;42.58;22.15;;;11.90;85.00;;;;;;5019942;28;20242;-85
2021/12/15 08:32:35;;;;;;;38.75;21.70;;;11.80;85.00;;;;;;5024361;28;20190;-85
2021/12/15 08:35:02;;;;;;;48.15;21.77;;;11.90;86.90;;;;;;5017816;28;20230;-85
2021/12/15 08:37:28;;;;;;;52.28;26.05;;;12.00;87.70;;;;;;5022468;28;20591;-86
2021/12/15 08:39:53;;;;;;;47.20;23.17;;;11.90;87.40;;;;;;5019644;28;20170;-85
2021/12/15 08:42:22;;;;;;;56.30;22.00;;;11.90;87.10;;;;;;5024359;28;20432;-85
2021/12/15 08:44:48;;;;;;;46.92;23.92;;;12.10;86.90;;;;;;5032512;28;20206;-85
2021/12/15 08:47:14;;;;;;;38.53;21.40;;;12.00;86.40;;;;;;5039628;28;20231;-82
2021/12/15 08:49:40;;;;;;;42.27;22.07;;;12.10;85.80;;;;;;5037319;28;20194;-84
2021/12/15 08:52:06;;;;;;;35.27;21.57;;;12.30;85.20;;;;;;5016007;28;20472;-84
2021/12/15 08:54:32;;;;;;;44.90;22.83;;;12.20;84.40;;;;;;5000803;28;20242;-84
2021/12/15 08:56:58;;;;;;;43.75;23.90;;;12.30;84.00;;;;;;5039185;28;20191;-84
2021/12/15 08:59:24;;;;;;;44.63;23.50;;;12.40;83.70;;;;;;5020026;28;20205;-83
2021/12/15 09:01:51;;;;;;;48.25;23.70;;;12.30;83.60;;;;;;5038280;28;20812;-83
2021/12/15 09:04:18;;;;;;;46.38;24.27;;;12.30;83.50;;;;;;5039088;28;20209;-84
2021/12/15 09:06:45;;;;;;;43.55;24.33;;;12.30;83.60;;;;;;5041772;28;20194;-84
2021/12/15 09:09:14;;;;;;;47.17;22.45;;;12.10;83.40;;;;;;5039009;28;20672;-83
2021/12/15 09:11:40;;;;;;;43.47;23.25;;;12.10;84.40;;;;;;5037136;28;20217;-83
2021/12/15 09:14:10;;;;;;;46.42;24.45;;;12.00;83.40;;;;;;5024605;28;20199;-82
2021/12/15 09:16:37;;;;;;;43.72;22.60;;;12.00;83.70;;;;;;5022645;28;20197;-83
2021/12/15 09:19:03;;;;;;;42.20;21.55;;;12.00;83.80;;;;;;5036953;28;20170;-83
2021/12/15 09:21:31;;;;;;;43.53;22.85;;;12.10;84.00;;;;;;5037048;28;20197;-83
2021/12/15 09:23:59;;;;;;;40.83;21.45;;;12.20;83.70;;;;;;5023017;28;20214;-83
2021/12/15 09:26:25;;;;;;;48.22;22.30;;;12.20;83.40;;;;;;5022331;28;20661;-84
2021/12/15 09:28:51;;;;;;;41.95;22.27;;;12.20;83.40;;;;;;5023369;28;20503;-84
2021/12/15 09:31:17;;;;;;;39.20;21.70;;;12.30;83.50;;;;;;5020912;28;20253;-84
2021/12/15 09:33:46;;;;;;;41.33;20.75;;;12.20;83.40;;;;;;5020378;28;20410;-84
2021/12/15 09:36:15;;;;;;;42.00;22.80;;;12.20;83.50;;;;;;5022947;28;20654;-84
2021/12/15 09:38:43;;;;;;;45.50;24.30;;;12.20;83.60;;;;;;5020992;28;20182;-84
2021/12/15 09:41:12;;;;;;;43.20;23.45;;;12.20;83.50;;;;;;5020969;28;20189;-84
2021/12/15 09:43:39;;;;;;;42.47;21.40;;;12.10;83.40;;;;;;5019726;28;20186;-84
2021/12/15 10:02:31;;;;;;;41.35;23.10;;;12.10;83.20;;;;;;5023251;28;20213;-84
2021/12/15 10:05:28;;;;;;;36.78;23.05;;;12.30;83.20;;;;;;5022969;28;20202;-83
2021/12/15 10:18:47;;;;;;;34.80;21.42;;;12.30;83.10;;;;;;5024145;28;20213;-84
2021/12/15 10:21:25;;;;;;;38.13;21.73;;;12.30;83.00;;;;;;5020858;28;20272;-84
2021/12/15 10:23:52;;;;;;;35.00;22.23;;;12.20;82.90;;;;;;5023247;28;20183;-84
2021/12/15 10:26:19;;;;;;;35.97;20.23;;;12.30;83.00;;;;;;5036833;28;20186;-84
2021/12/15 10:28:49;;;;;;;42.53;21.23;;;12.40;82.70;;;;;;5026038;28;20218;-84
2021/12/15 10:31:16;;;;;;;37.10;19.30;;;12.40;82.40;;;;;;5041820;28;20620;-84
2021/12/15 10:33:52;;;;;;;35.58;19.48;;;12.30;82.60;;;;;;5041235;28;20540;-83
2021/12/15 10:36:20;;;;;;;34.33;20.80;;;12.30;82.80;;;;;;5032822;28;20282;-82
2021/12/15 10:38:49;;;;;;;37.13;21.70;;;12.20;82.70;;;;;;5041747;28;20611;-83
2021/12/15 10:41:23;;;;;;;31.85;18.67;;;12.40;82.80;;;;;;5038026;28;20733;-84
2021/12/15 10:43:58;;;;;;;32.08;19.85;;;12.50;82.60;;;;;;5039685;28;20182;-84
2021/12/15 10:46:49;;;;;;;33.35;19.25;;;12.50;82.30;;;;;;5028369;28;20268;-84
2021/12/15 10:49:22;;;;;;;33.08;20.65;;;12.70;82.30;;;;;;5020141;28;20588;-83
2021/12/15 10:52:01;;;;;;;40.42;21.55;;;12.60;81.80;;;;;;5039113;28;20681;-84
2021/12/15 10:54:51;;;;;;;32.50;19.17;;;12.50;81.70;;;;;;5041611;28;20212;-83
2021/12/15 10:57:29;;;;;;;36.10;19.88;;;12.60;81.60;;;;;;5043866;28;20214;-83
2021/12/15 10:59:56;;;;;;;28.67;19.70;;;12.70;81.60;;;;;;5041816;28;20193;-82
2021/12/15 11:02:28;;;;;;;37.00;19.30;;;12.60;81.50;;;;;;5024002;28;20250;-81
2021/12/15 11:05:02;;;;;;;28.13;19.02;;;12.70;81.50;;;;;;5023221;28;20610;-81
2021/12/15 11:07:44;;;;;;;34.15;19.50;;;12.70;81.20;;;;;;5026457;28;20161;-81
2021/12/15 11:10:27;;;;;;;28.67;18.45;;;12.60;81.10;;;;;;5026252;28;20196;-81
2021/12/15 11:12:59;;;;;;;29.52;18.20;;;12.50;81.40;;;;;;5036443;28;20203;-83
2021/12/15 11:15:33;;;;;;;34.92;19.35;;;12.50;81.50;;;;;;5044103;28;20277;-84
2021/12/15 11:18:02;;;;;;;34.55;18.33;;;12.50;81.70;;;;;;5030365;28;20179;-84
2021/12/15 11:20:27;;;;;;;34.15;18.88;;;12.60;81.60;;;;;;5027354;28;20218;-83
2021/12/15 11:23:13;;;;;;;29.30;17.97;;;12.70;81.50;;;;;;5026462;28;20201;-84
2021/12/15 11:25:47;;;;;;;30.08;19.17;;;12.80;80.90;;;;;;5027049;28;20214;-84
2021/12/15 11:28:29;;;;;;;33.60;19.48;;;12.70;81.00;;;;;;5028566;28;20171;-83
2021/12/15 11:31:11;;;;;;;26.05;17.23;;;12.90;81.00;;;;;;5025512;28;20183;-84
2021/12/15 11:33:39;;;;;;;34.13;18.67;;;12.80;81.00;;;;;;5024320;28;20205;-84
2021/12/15 11:36:07;;;;;;;29.98;17.88;;;12.70;81.10;;;;;;5026303;28;20222;-83
2021/12/15 11:38:44;;;;;;;32.03;18.90;;;12.70;81.20;;;;;;5037467;28;20177;-86
2021/12/15 11:41:24;;;;;;;29.98;18.27;;;12.70;81.20;;;;;;5027981;28;20174;-84
2021/12/15 11:43:59;;;;;;;34.15;19.05;;;12.90;81.10;;;;;;5045179;28;20174;-84
2021/12/15 11:46:29;;;;;;;26.10;17.55;;;12.90;80.90;;;;;;5047220;28;20208;-84
2021/12/15 11:49:01;;;;;;;32.58;18.38;;;12.90;80.90;;;;;;5053445;28;20189;-84
2021/12/15 11:51:32;;;;;;;29.17;18.95;;;13.10;80.60;;;;;;5054608;28;20571;-83
2021/12/15 11:53:58;;;;;;;27.23;17.85;;;13.10;80.10;;;;;;5050015;28;20292;-83
2021/12/15 11:56:26;;;;;;;28.00;17.40;;;13.10;79.90;;;;;;5042737;28;20194;-83
2021/12/15 11:58:57;;;;;;;30.98;18.52;;;13.00;80.00;;;;;;5041527;28;20417;-83
2021/12/15 12:01:40;;;;;;;28.25;17.42;;;13.00;80.00;;;;;;5039525;28;20188;-84
2021/12/15 12:04:20;;;;;;;34.35;18.60;;;13.10;79.70;;;;;;5045138;28;20232;-84
2021/12/15 12:06:48;;;;;;;31.30;17.40;;;13.20;79.40;;;;;;5045649;28;20174;-84
2021/12/15 12:09:16;;;;;;;31.75;19.60;;;13.20;79.50;;;;;;5032647;28;20235;-83
2021/12/15 12:11:44;;;;;;;27.25;17.85;;;13.10;79.60;;;;;;5025398;28;20226;-83
2021/12/15 12:14:19;;;;;;;30.75;18.10;;;13.00;79.70;;;;;;5038600;28;20198;-83
2021/12/15 12:16:46;;;;;;;26.05;17.90;;;13.10;79.80;;;;;;5037269;28;20192;-83
2021/12/15 12:19:13;;;;;;;26.90;15.50;;;13.10;79.70;;;;;;5038604;28;20201;-84
2021/12/15 12:21:40;;;;;;;24.48;16.98;;;13.00;79.80;;;;;;5036681;28;20200;-83
2021/12/15 12:24:06;;;;;;;27.58;16.38;;;13.10;79.90;;;;;;5039952;28;20189;-84
2021/12/15 12:26:35;;;;;;;34.85;17.83;;;13.20;79.60;;;;;;5044344;28;20703;-81
2021/12/15 12:29:01;;;;;;;23.15;15.75;;;13.20;79.20;;;;;;5040174;28;20186;-82
2021/12/15 12:31:28;;;;;;;27.15;17.60;;;13.10;79.50;;;;;;5037288;28;20300;-82
2021/12/15 12:33:54;;;;;;;24.70;16.88;;;13.00;79.50;;;;;;5048350;28;20198;-82
2021/12/15 12:36:26;;;;;;;22.58;16.13;;;12.90;79.80;;;;;;5034670;28;20185;-82
2021/12/15 12:38:59;;;;;;;34.80;16.85;;;12.90;79.80;;;;;;5055634;28;20173;-82
2021/12/15 12:41:31;;;;;;;24.98;16.70;;;13.00;80.00;;;;;;5038731;28;20192;-82
2021/12/15 12:44:00;;;;;;;23.95;16.50;;;13.10;79.90;;;;;;5056492;28;20233;-82
2021/12/15 12:46:46;;;;;;;26.33;16.23;;;13.10;79.70;;;;;;5049814;28;20193;-83
2021/12/15 12:59:24;;;;;;;25.38;17.67;;;13.00;79.80;;;;;;5054347;28;20699;-81
2021/12/15 13:00:49;;;;;;;26.40;17.35;;;13.00;79.80;;;;;;5028648;28;20222;-81
2021/12/15 13:03:22;;;;;;;25.70;16.67;;;12.90;79.90;;;;;;5022860;28;20162;-81
2021/12/15 13:05:57;;;;;;;26.52;15.43;;;13.00;80.00;;;;;;5025109;28;20674;-81
2021/12/15 13:08:36;;;;;;;26.70;17.23;;;13.10;80.00;;;;;;5026841;28;20177;-81
2021/12/15 13:11:17;;;;;;;25.08;16.95;;;13.00;79.80;;;;;;5043801;28;20198;-82
2021/12/15 13:13:52;;;;;;;24.45;16.50;;;13.20;79.70;;;;;;5043397;28;20162;-81
2021/12/15 13:16:27;;;;;;;28.75;19.00;;;13.00;79.60;;;;;;5045988;28;20193;-81
2021/12/15 13:19:04;;;;;;;23.90;15.55;;;12.90;79.90;;;;;;5049467;28;20174;-82
2021/12/15 13:21:56;;;;;;;28.38;16.40;;;12.70;80.20;;;;;;5049543;28;20197;-82
2021/12/15 13:30:51;;;;;;;30.77;17.45;;;12.80;80.70;;;;;;5061636;28;20231;-81
2021/12/15 13:33:38;;;;;;;38.97;16.65;;;12.90;80.70;;;;;;5061484;28;20173;-82
2021/12/15 13:36:05;;;;;;;24.80;16.70;;;12.80;80.50;;;;;;5041506;28;20186;-82
2021/12/15 13:38:37;;;;;;;29.50;18.00;;;12.80;80.70;;;;;;5041674;28;20170;-81
2021/12/15 13:44:17;;;;;;;29.23;17.33;;;12.80;80.70;;;;;;5031265;28;20262;-81
2021/12/15 13:46:47;;;;;;;24.98;16.00;;;12.80;80.60;;;;;;5023657;28;20186;-80
2021/12/15 13:49:28;;;;;;;31.27;18.65;;;12.90;80.70;;;;;;5021073;28;20183;-82
2021/12/15 13:52:27;;;;;;;29.52;17.73;;;12.90;80.60;;;;;;5039262;28;20224;-82
2021/12/15 13:55:03;;;;;;;25.75;17.27;;;12.90;80.60;;;;;;5042454;28;20217;-81
2021/12/15 13:57:59;;;;;;;29.98;17.85;;;13.00;80.40;;;;;;5041386;28;20166;-82
2021/12/15 14:00:33;;;;;;;34.42;18.00;;;13.00;80.20;;;;;;5028788;28;20592;-82
2021/12/15 14:03:13;;;;;;;34.40;18.95;;;12.90;80.30;;;;;;5031157;28;20190;-82
2021/12/15 14:05:40;;;;;;;25.30;16.92;;;12.90;80.40;;;;;;5028892;28;20270;-83
2021/12/15 14:08:17;;;;;;;25.23;17.00;;;12.80;80.30;;;;;;5038930;28;20662;-83
2021/12/15 14:10:58;;;;;;;27.63;17.10;;;12.80;80.40;;;;;;5042371;28;20168;-82
2021/12/15 14:13:41;;;;;;;28.58;17.08;;;12.80;80.40;;;;;;5042736;28;20193;-82